Glendive, MT

3:09 PM MDT on May 28, 2017 (GMT -0600)
Dawson Community

Weather History for KGDV - August, 2013

Change the Weather History Date:

Tuesday, August 6, 2013

  Actual Average Record
Temperature  
Mean Temperature 68 °F -  
Max Temperature 78 °F 83 °F 96 °F (2001)
Min Temperature 57 °F 56 °F 48 °F (2006)
Cooling Degree Days 2    
Growing Degree Days 18 (Base 50)    
Moisture  
Dew Point 54 °F    
Average Humidity 66    
Maximum Humidity 94    
Minimum Humidity 36    
Precipitation  
Precipitation 0.00 in - - ()
Sea Level Pressure  
Sea Level Pressure 29.91 in    
Wind  
Wind Speed 11 mph (WNW)    
Max Wind Speed 21 mph    
Max Gust Speed 34 mph    
Visibility 10 miles    
Events      
Averages and records for this station are not official NWS values.
T = Trace of Precipitation, MM = Missing Value Source: NWS Daily Summary

Daily Weather History Graph

Daily Weather History Graph

Search for Another Location

Airport or City:

Trip Planner

Search our weather history database for the weather conditions in past years. The results will help you decide how hot, cold, wet, or windy it might be!

Date:

Astronomy

Aug. 06, 2013 Rise Set
Actual Time 5:44 AM MDT 8:24 PM MDT
Civil Twilight 5:10 AM MDT 8:59 PM MDT
Nautical Twilight 4:25 AM MDT 9:42 PM MDT
Astronomical Twilight 3:34 AM MDT 10:33 PM MDT
Moon 5:42 AM MDT (8/6) 7:54 PM MDT (8/6)
Length of Visible Light 15h 48m
Length of Day
14h 39m
Waning Crescent, 0% of the Moon is Illuminated
Aug 6
Waning Crescent
Aug 6
New
Aug 14
First Quarter
Aug 20
Full
Aug 28
Last Quarter

Hourly Weather History & Observations

Time (MDT) Temp. Dew Point Humidity Pressure Visibility Wind Dir Wind Speed Gust Speed Precip Events Conditions
12:15 AM 60.8 °F 55.4 °F 82% 29.84 in 10.0 mi WSW 3.5 mph - N/A   Clear
12:35 AM 60.8 °F 53.6 °F 77% 29.84 in 10.0 mi SSW 4.6 mph - N/A   Clear
1:15 AM 60.8 °F 55.4 °F 82% 29.84 in 10.0 mi SSW 4.6 mph - N/A   Clear
1:35 AM 60.8 °F 53.6 °F 77% 29.83 in 10.0 mi West 3.5 mph - N/A   Clear
1:55 AM 60.8 °F 53.6 °F 77% 29.83 in 10.0 mi NNW 4.6 mph - N/A   Clear
2:15 AM 60.8 °F 53.6 °F 77% 29.83 in 10.0 mi NW 9.2 mph - N/A   Clear
2:35 AM 60.8 °F 53.6 °F 77% 29.83 in 10.0 mi WNW 11.5 mph - N/A   Clear
2:55 AM 60.8 °F 55.4 °F 82% 29.83 in 10.0 mi WNW 11.5 mph - N/A   Clear
3:15 AM 60.8 °F 55.4 °F 82% 29.83 in 10.0 mi WNW 13.8 mph - N/A   Clear
3:35 AM 60.8 °F 55.4 °F 82% 29.84 in 10.0 mi WNW 9.2 mph - N/A   Clear
3:56 AM 60.8 °F 55.4 °F 82% 29.85 in 10.0 mi WNW 11.5 mph 17.3 mph N/A   Clear
4:15 AM 60.8 °F 55.4 °F 82% 29.85 in 10.0 mi NW 19.6 mph 25.3 mph N/A   Clear
4:35 AM 60.8 °F 55.4 °F 82% 29.86 in 10.0 mi NW 16.1 mph 21.9 mph N/A   Clear
4:55 AM 59.0 °F 55.4 °F 88% 29.87 in 10.0 mi WNW 13.8 mph 21.9 mph N/A   Clear
5:15 AM 59.0 °F 55.4 °F 88% 29.87 in 10.0 mi WNW 8.1 mph - N/A   Clear
5:35 AM 57.2 °F 53.6 °F 88% 29.88 in 10.0 mi West 6.9 mph - N/A   Clear
5:55 AM 57.2 °F 53.6 °F 88% 29.88 in 10.0 mi WNW 5.8 mph - N/A   Clear
6:15 AM 57.2 °F 55.4 °F 94% 29.88 in 10.0 mi WNW 5.8 mph - N/A   Clear
6:35 AM 59.0 °F 55.4 °F 88% 29.89 in 10.0 mi NW 6.9 mph - N/A   Clear
6:55 AM 60.8 °F 55.4 °F 82% 29.89 in 10.0 mi NW 12.7 mph - N/A   Clear
7:15 AM 60.8 °F 55.4 °F 82% 29.90 in 10.0 mi WNW 11.5 mph 16.1 mph N/A   Clear
7:35 AM 62.6 °F 55.4 °F 77% 29.91 in 10.0 mi WNW 15.0 mph 18.4 mph N/A   Clear
7:55 AM 62.6 °F 55.4 °F 77% 29.92 in 10.0 mi WNW 15.0 mph 20.7 mph N/A   Clear
8:15 AM 62.6 °F 55.4 °F 77% 29.92 in 10.0 mi NW 15.0 mph 23.0 mph N/A   Clear
8:55 AM 66.2 °F 55.4 °F 68% 29.93 in 10.0 mi WNW 18.4 mph 24.2 mph N/A   Partly Cloudy
9:15 AM 66.2 °F 55.4 °F 68% 29.94 in 10.0 mi NW 18.4 mph 27.6 mph N/A   Partly Cloudy
9:35 AM 68.0 °F 55.4 °F 64% 29.94 in 10.0 mi WNW 18.4 mph 25.3 mph N/A   Partly Cloudy
9:55 AM 66.2 °F 55.4 °F 68% 29.94 in 10.0 mi NW 18.4 mph 25.3 mph N/A   Scattered Clouds
10:15 AM 68.0 °F 55.4 °F 64% 29.94 in 10.0 mi NW 15.0 mph 27.6 mph N/A   Scattered Clouds
10:35 AM 69.8 °F 55.4 °F 60% 29.94 in 10.0 mi NW 15.0 mph 26.5 mph N/A   Scattered Clouds
10:55 AM 69.8 °F 55.4 °F 60% 29.94 in 10.0 mi NW 17.3 mph 24.2 mph N/A   Scattered Clouds
11:15 AM 69.8 °F 55.4 °F 60% 29.94 in 10.0 mi NW 17.3 mph 23.0 mph N/A   Scattered Clouds
11:35 AM 71.6 °F 55.4 °F 57% 29.94 in 10.0 mi NW 19.6 mph 26.5 mph N/A   Scattered Clouds
11:55 AM 71.6 °F 55.4 °F 57% 29.94 in 10.0 mi NW 19.6 mph 27.6 mph N/A   Partly Cloudy
12:15 PM 73.4 °F 53.6 °F 50% 29.95 in 10.0 mi NW 16.1 mph 26.5 mph N/A   Clear
12:35 PM 73.4 °F 53.6 °F 50% 29.94 in 10.0 mi NW 17.3 mph 23.0 mph N/A   Clear
12:55 PM 75.2 °F 53.6 °F 47% 29.94 in 10.0 mi NW 17.3 mph 27.6 mph N/A   Clear
1:15 PM 75.2 °F 53.6 °F 47% 29.94 in 10.0 mi NW 17.3 mph 23.0 mph N/A   Clear
2:35 PM 77.0 °F 55.4 °F 47% 29.94 in 10.0 mi WNW 16.1 mph 19.6 mph N/A   Clear
2:55 PM 77.0 °F 53.6 °F 44% 29.93 in 10.0 mi NW 15.0 mph 21.9 mph N/A   Partly Cloudy
3:15 PM 75.2 °F 51.8 °F 44% 29.93 in 10.0 mi WNW 16.1 mph 24.2 mph N/A   Partly Cloudy
3:35 PM 78.8 °F 53.6 °F 42% 29.93 in 10.0 mi West 15.0 mph 25.3 mph N/A   Mostly Cloudy
3:55 PM 75.2 °F 53.6 °F 47% 29.93 in 10.0 mi WNW 12.7 mph - N/A   Mostly Cloudy
4:15 PM 78.8 °F 53.6 °F 42% 29.92 in 10.0 mi West 15.0 mph 20.7 mph N/A   Scattered Clouds
4:55 PM 77.0 °F 53.6 °F 44% 29.91 in 10.0 mi WNW 12.7 mph - N/A   Mostly Cloudy
5:15 PM 77.0 °F 53.6 °F 44% 29.91 in 10.0 mi NW 8.1 mph - N/A   Mostly Cloudy
5:35 PM 78.8 °F 51.8 °F 39% 29.92 in 10.0 mi WNW 13.8 mph - N/A   Mostly Cloudy
5:55 PM 78.8 °F 50.0 °F 36% 29.92 in 10.0 mi West 15.0 mph 23.0 mph N/A   Partly Cloudy
6:15 PM 78.8 °F 50.0 °F 36% 29.91 in 10.0 mi West 18.4 mph - N/A   Clear
6:35 PM 77.0 °F 50.0 °F 39% 29.92 in 10.0 mi West 16.1 mph 23.0 mph N/A   Clear
6:55 PM 75.2 °F 48.2 °F 38% 29.92 in 10.0 mi WNW 15.0 mph 23.0 mph N/A   Clear
7:15 PM 68.0 °F 53.6 °F 60% 29.94 in 10.0 mi North 20.7 mph 34.5 mph N/A   Mostly Cloudy
7:35 PM 66.2 °F 53.6 °F 64% 29.95 in 10.0 mi North 17.3 mph - N/A   Mostly Cloudy
7:55 PM 66.2 °F 53.6 °F 64% 29.96 in 10.0 mi North 13.8 mph - N/A   Mostly Cloudy
8:15 PM 64.4 °F 53.6 °F 68% 29.96 in 10.0 mi North 10.4 mph - N/A   Mostly Cloudy
8:35 PM 64.4 °F 53.6 °F 68% 29.97 in 10.0 mi NNW 6.9 mph - N/A   Overcast
8:55 PM 62.6 °F 53.6 °F 72% 29.98 in 10.0 mi NW 3.5 mph - N/A   Mostly Cloudy
9:15 PM 60.8 °F 51.8 °F 72% 29.98 in 10.0 mi Calm Calm - N/A   Clear
9:35 PM 60.8 °F 51.8 °F 72% 29.99 in 10.0 mi Calm Calm - N/A   Mostly Cloudy
10:35 PM 57.2 °F 53.6 °F 88% 30.00 in 10.0 mi NNW 10.4 mph - N/A   Scattered Clouds
11:15 PM 59.0 °F 53.6 °F 82% 30.01 in 10.0 mi NNW 11.5 mph - N/A   Clear